Time;durP1;ratioP1;P1;durP2;ratioP2;P2;SDS_P1;SDS_P2;PMS_P1;PMS_P2;Temp;Humidity;BMP_temperature;BMP_pressure;BME280_temperature;BME280_humidity;BME280_pressure;Samples;Min_cycle;Max_cycle;Signal;HPM_P1;HPM_P2
2022/11/11 00:00:40;;;;;;;10.50;2.05;;;;;;;;;;2086507;28;20025;-69
2022/11/11 00:01:59;;;;;;;10.57;1.70;;;;;;;;;;2086503;28;20025;-69
2022/11/11 00:03:18;;;;;;;11.45;1.77;;;;;;;;;;2088648;28;20033;-69
2022/11/11 00:04:37;;;;;;;6.53;1.85;;;;;;;;;;2090731;28;20033;-69
2022/11/11 00:06:04;;;;;;;8.27;1.73;;;;;;;;;;2090844;28;20512;-69
2022/11/11 00:07:23;;;;;;;10.05;1.65;;;;;;;;;;2091536;28;20203;-69
2022/11/11 00:08:42;;;;;;;8.15;2.17;;;;;;;;;;2089928;28;20028;-69
2022/11/11 00:10:01;;;;;;;8.90;1.35;;;;;;;;;;2089854;28;20488;-69
2022/11/11 00:11:20;;;;;;;8.60;2.00;;;;;;;;;;2091708;28;20048;-69
2022/11/11 00:12:39;;;;;;;9.82;2.13;;;;;;;;;;2090624;28;20279;-69
2022/11/11 00:13:58;;;;;;;7.97;1.85;;;;;;;;;;2091385;28;20624;-69
2022/11/11 00:15:17;;;;;;;6.82;1.52;;;;;;;;;;2089055;28;20029;-69
2022/11/11 00:26:11;;;;;;;7.00;1.90;;;;;;;;;;2092677;28;20494;-69
2022/11/11 00:27:30;;;;;;;7.95;2.03;;;;;;;;;;2091210;28;20040;-69
2022/11/11 00:28:50;;;;;;;6.57;2.50;;;;;;;;;;2081092;28;20032;-69
2022/11/11 00:30:08;;;;;;;8.40;2.20;;;;;;;;;;2084516;28;20425;-69
2022/11/11 00:31:27;;;;;;;3.78;1.23;;;;;;;;;;2092290;28;20143;-69
2022/11/11 00:32:46;;;;;;;6.38;1.77;;;;;;;;;;2092787;28;20478;-69
2022/11/11 00:34:05;;;;;;;4.43;1.15;;;;;;;;;;2091340;28;20394;-69
2022/11/11 00:37:02;;;;;;;7.03;1.90;;;;;;;;;;2091216;28;20026;-69
2022/11/11 00:39:59;;;;;;;6.15;1.20;;;;;;;;;;2090774;28;20398;-69
2022/11/11 00:41:18;;;;;;;3.95;1.55;;;;;;;;;;2092846;28;20381;-69
2022/11/11 00:42:38;;;;;;;5.28;1.27;;;;;;;;;;2090934;28;20481;-69
2022/11/11 00:43:57;;;;;;;8.60;1.35;;;;;;;;;;2088362;28;20028;-69
2022/11/11 00:45:15;;;;;;;7.47;1.27;;;;;;;;;;2090645;28;20434;-69
2022/11/11 00:51:32;;;;;;;5.32;1.55;;;;;;;;;;2091688;28;20024;-69
2022/11/11 00:52:51;;;;;;;5.13;1.40;;;;;;;;;;2091609;28;20020;-69
2022/11/11 00:54:10;;;;;;;4.57;1.30;;;;;;;;;;2090357;28;20511;-69
2022/11/11 00:55:29;;;;;;;5.38;1.60;;;;;;;;;;2090783;28;20134;-70
2022/11/11 00:56:48;;;;;;;5.72;1.35;;;;;;;;;;2092090;28;20538;-69
2022/11/11 00:58:06;;;;;;;5.80;1.35;;;;;;;;;;2091664;28;20048;-69
2022/11/11 00:59:26;;;;;;;5.68;1.40;;;;;;;;;;2090156;28;20156;-70
2022/11/11 01:00:46;;;;;;;4.07;1.33;;;;;;;;;;2085740;28;20458;-69
2022/11/11 01:02:05;;;;;;;9.45;1.63;;;;;;;;;;2088125;28;20028;-69
2022/11/11 01:03:23;;;;;;;3.63;1.25;;;;;;;;;;2090887;28;20446;-69
2022/11/11 01:04:42;;;;;;;4.03;1.10;;;;;;;;;;2090126;28;20085;-69
2022/11/11 01:06:02;;;;;;;4.75;0.90;;;;;;;;;;2090830;28;20489;-69
2022/11/11 01:07:22;;;;;;;3.92;1.13;;;;;;;;;;2090061;28;20393;-69
2022/11/11 01:08:41;;;;;;;5.30;1.40;;;;;;;;;;2090650;28;20896;-69
2022/11/11 01:10:00;;;;;;;4.60;1.10;;;;;;;;;;2089894;28;20037;-70
2022/11/11 01:11:21;;;;;;;4.50;0.85;;;;;;;;;;2091358;28;20032;-69
2022/11/11 01:12:40;;;;;;;2.75;0.93;;;;;;;;;;2091521;28;20037;-70
2022/11/11 01:13:59;;;;;;;1.88;0.75;;;;;;;;;;2092492;28;20040;-69
2022/11/11 01:15:18;;;;;;;6.82;1.08;;;;;;;;;;2090646;28;20041;-69
2022/11/11 01:16:37;;;;;;;3.75;1.00;;;;;;;;;;2090368;28;20021;-69
2022/11/11 01:17:56;;;;;;;2.78;1.05;;;;;;;;;;2091557;28;20017;-69
2022/11/11 01:19:15;;;;;;;2.45;1.25;;;;;;;;;;2091260;28;20025;-69
2022/11/11 01:20:36;;;;;;;6.20;1.17;;;;;;;;;;2091970;28;20048;-69
2022/11/11 01:21:55;;;;;;;5.05;0.95;;;;;;;;;;2090152;28;20623;-69
2022/11/11 01:23:13;;;;;;;4.30;1.20;;;;;;;;;;2092067;28;20025;-69
2022/11/11 01:24:32;;;;;;;2.72;0.98;;;;;;;;;;2089142;28;20037;-69
2022/11/11 01:25:51;;;;;;;6.13;1.50;;;;;;;;;;2089912;28;20075;-70
2022/11/11 01:27:10;;;;;;;5.35;1.27;;;;;;;;;;2088722;28;20096;-69
2022/11/11 01:28:29;;;;;;;4.13;0.93;;;;;;;;;;2091103;28;20024;-70
2022/11/11 01:29:48;;;;;;;3.22;1.10;;;;;;;;;;2085734;28;20037;-69
2022/11/11 01:31:08;;;;;;;4.38;1.38;;;;;;;;;;2088244;28;20036;-70
2022/11/11 01:32:27;;;;;;;2.88;1.50;;;;;;;;;;2088531;28;20025;-69
2022/11/11 01:33:46;;;;;;;6.88;1.08;;;;;;;;;;2086562;28;20585;-69
2022/11/11 01:35:06;;;;;;;6.03;1.30;;;;;;;;;;2087186;28;20037;-70
2022/11/11 01:36:26;;;;;;;7.00;1.20;;;;;;;;;;2088155;28;20048;-69
2022/11/11 01:37:45;;;;;;;3.35;1.05;;;;;;;;;;2091207;28;20017;-69
2022/11/11 01:39:04;;;;;;;2.25;0.80;;;;;;;;;;2090257;28;20033;-69
2022/11/11 01:40:23;;;;;;;3.22;0.90;;;;;;;;;;2090627;28;20489;-69
2022/11/11 01:41:43;;;;;;;3.33;0.80;;;;;;;;;;2091981;28;20028;-69
2022/11/11 01:43:04;;;;;;;3.28;1.10;;;;;;;;;;2092042;28;20103;-69
2022/11/11 01:44:46;;;;;;;2.67;1.30;;;;;;;;;;2090136;28;20024;-70
2022/11/11 01:46:15;;;;;;;3.22;0.80;;;;;;;;;;2090376;28;20044;-69
2022/11/11 01:49:24;;;;;;;3.08;1.13;;;;;;;;;;2090299;28;20037;-69
2022/11/11 01:50:44;;;;;;;7.10;1.30;;;;;;;;;;2091208;28;20500;-69
2022/11/11 01:52:11;;;;;;;5.63;1.15;;;;;;;;;;2089193;28;20107;-69
2022/11/11 01:53:31;;;;;;;4.40;1.20;;;;;;;;;;2092149;28;20036;-70
2022/11/11 01:55:12;;;;;;;3.97;0.90;;;;;;;;;;2090796;28;20040;-70
2022/11/11 01:56:31;;;;;;;4.03;1.05;;;;;;;;;;2091706;28;20045;-70
2022/11/11 01:58:02;;;;;;;4.35;0.95;;;;;;;;;;2091853;28;20028;-70
2022/11/11 01:59:21;;;;;;;3.13;1.20;;;;;;;;;;2091130;28;20104;-69
2022/11/11 02:00:41;;;;;;;4.07;1.23;;;;;;;;;;2090200;28;20032;-69
2022/11/11 02:02:01;;;;;;;4.43;0.88;;;;;;;;;;2092147;28;20032;-69
2022/11/11 02:03:21;;;;;;;4.95;1.33;;;;;;;;;;2090366;28;20025;-69
2022/11/11 02:06:19;;;;;;;5.40;0.82;;;;;;;;;;2092728;28;20107;-69
2022/11/11 02:07:38;;;;;;;3.50;1.00;;;;;;;;;;2092209;28;20029;-70
2022/11/11 02:08:57;;;;;;;2.70;0.80;;;;;;;;;;2087619;28;20123;-69
2022/11/11 02:10:18;;;;;;;3.70;1.02;;;;;;;;;;2088426;28;20448;-70
2022/11/11 02:15:02;;;;;;;3.70;1.00;;;;;;;;;;2091771;28;20032;-70
2022/11/11 02:16:21;;;;;;;1.30;0.93;;;;;;;;;;2092341;28;20041;-70
2022/11/11 02:17:40;;;;;;;1.92;0.88;;;;;;;;;;2091591;28;20028;-69
2022/11/11 02:19:00;;;;;;;2.15;0.85;;;;;;;;;;2091952;28;20037;-69
2022/11/11 02:20:21;;;;;;;2.22;0.82;;;;;;;;;;2090608;28;20029;-69
2022/11/11 02:21:43;;;;;;;2.97;1.40;;;;;;;;;;2092026;28;20033;-70
2022/11/11 02:23:14;;;;;;;4.25;1.00;;;;;;;;;;2088182;28;20033;-70
2022/11/11 02:24:33;;;;;;;2.35;0.90;;;;;;;;;;2092258;28;20107;-69
2022/11/11 02:25:53;;;;;;;1.63;0.77;;;;;;;;;;2090247;28;20028;-68
2022/11/11 02:27:14;;;;;;;4.57;1.10;;;;;;;;;;2093151;28;20033;-68
2022/11/11 02:28:33;;;;;;;3.03;0.85;;;;;;;;;;2091083;28;20021;-68
2022/11/11 02:29:54;;;;;;;2.38;0.60;;;;;;;;;;2091000;28;20108;-68
2022/11/11 02:31:13;;;;;;;2.22;0.93;;;;;;;;;;2091542;28;20072;-68
2022/11/11 02:32:32;;;;;;;3.63;0.80;;;;;;;;;;2092918;28;20033;-68
2022/11/11 02:33:51;;;;;;;2.97;1.23;;;;;;;;;;2091685;28;20764;-68
2022/11/11 02:35:15;;;;;;;3.22;0.82;;;;;;;;;;2091213;28;20037;-68
2022/11/11 02:36:34;;;;;;;5.45;1.20;;;;;;;;;;2091159;28;20041;-69
2022/11/11 02:37:53;;;;;;;3.42;1.02;;;;;;;;;;2092416;28;20021;-68
2022/11/11 02:39:12;;;;;;;2.10;0.73;;;;;;;;;;2090704;28;20057;-70
2022/11/11 02:40:36;;;;;;;2.78;1.35;;;;;;;;;;2090992;28;20693;-69
2022/11/11 02:41:55;;;;;;;2.15;0.80;;;;;;;;;;2092023;28;20107;-69
2022/11/11 02:43:14;;;;;;;4.75;1.02;;;;;;;;;;2091025;28;20041;-69
2022/11/11 02:44:33;;;;;;;2.53;0.80;;;;;;;;;;2092759;28;20393;-69
2022/11/11 02:45:52;;;;;;;3.58;1.08;;;;;;;;;;2089968;28;20029;-69
2022/11/11 02:47:11;;;;;;;2.95;0.85;;;;;;;;;;2091631;28;20037;-69
2022/11/11 02:48:30;;;;;;;2.47;0.95;;;;;;;;;;2088839;28;20068;-69
2022/11/11 02:49:49;;;;;;;4.20;1.20;;;;;;;;;;2090132;28;20092;-69
2022/11/11 02:51:08;;;;;;;4.97;1.35;;;;;;;;;;2091471;28;20108;-69
2022/11/11 02:52:27;;;;;;;2.55;1.10;;;;;;;;;;2091990;28;20123;-69
2022/11/11 02:53:46;;;;;;;3.15;0.95;;;;;;;;;;2089611;28;20025;-69
2022/11/11 02:55:05;;;;;;;4.85;1.15;;;;;;;;;;2091698;28;20041;-69
2022/11/11 02:58:02;;;;;;;3.17;1.00;;;;;;;;;;2091480;28;20021;-69
2022/11/11 02:59:21;;;;;;;6.40;1.33;;;;;;;;;;2091774;28;20028;-69
2022/11/11 03:00:41;;;;;;;3.05;1.23;;;;;;;;;;2089885;28;20470;-69
2022/11/11 03:02:00;;;;;;;3.20;1.00;;;;;;;;;;2093218;28;20095;-69
2022/11/11 03:03:19;;;;;;;2.70;1.20;;;;;;;;;;2089528;28;20394;-69
2022/11/11 03:04:38;;;;;;;3.05;0.90;;;;;;;;;;2089810;28;20032;-69
2022/11/11 03:05:56;;;;;;;2.83;1.25;;;;;;;;;;2090536;28;20037;-69
2022/11/11 03:07:15;;;;;;;4.15;1.42;;;;;;;;;;2091222;28;20044;-69
2022/11/11 03:08:34;;;;;;;2.03;0.73;;;;;;;;;;2087523;28;20055;-68
2022/11/11 03:09:53;;;;;;;2.65;0.82;;;;;;;;;;2092296;28;20025;-69
2022/11/11 03:11:12;;;;;;;5.10;1.30;;;;;;;;;;2090507;28;20490;-69
2022/11/11 03:12:31;;;;;;;6.65;1.20;;;;;;;;;;2087961;28;20506;-68
2022/11/11 03:13:49;;;;;;;4.65;1.00;;;;;;;;;;2091320;28;20033;-69
2022/11/11 03:15:08;;;;;;;4.40;1.38;;;;;;;;;;2088319;28;20037;-69
2022/11/11 03:18:05;;;;;;;6.70;1.60;;;;;;;;;;2092469;28;20041;-69
2022/11/11 03:19:24;;;;;;;5.55;1.25;;;;;;;;;;2090984;28;20025;-70
2022/11/11 03:22:22;;;;;;;5.63;1.38;;;;;;;;;;2092984;28;20029;-70
2022/11/11 03:23:41;;;;;;;3.15;0.95;;;;;;;;;;2091761;28;20029;-69
2022/11/11 03:26:37;;;;;;;2.20;1.23;;;;;;;;;;2090237;28;20072;-69
2022/11/11 03:27:56;;;;;;;3.90;1.35;;;;;;;;;;2090864;28;20654;-69
2022/11/11 03:29:15;;;;;;;1.90;1.00;;;;;;;;;;2092440;28;20092;-69
2022/11/11 03:30:34;;;;;;;2.58;1.13;;;;;;;;;;2089390;28;20053;-69
2022/11/11 03:31:53;;;;;;;7.45;1.00;;;;;;;;;;2090823;28;20036;-69
2022/11/11 03:33:13;;;;;;;3.70;0.90;;;;;;;;;;2091663;28;20111;-69
2022/11/11 03:34:31;;;;;;;2.35;0.80;;;;;;;;;;2088709;28;20032;-69
2022/11/11 03:35:50;;;;;;;4.85;1.25;;;;;;;;;;2092529;28;20037;-69
2022/11/11 03:38:47;;;;;;;1.20;0.73;;;;;;;;;;2092485;28;20413;-69
2022/11/11 03:40:07;;;;;;;3.55;0.80;;;;;;;;;;2092658;28;20071;-70
2022/11/11 03:41:26;;;;;;;5.82;1.00;;;;;;;;;;2089783;28;20028;-69
2022/11/11 03:42:45;;;;;;;5.25;1.13;;;;;;;;;;2089676;28;20107;-69
2022/11/11 03:44:04;;;;;;;1.85;0.77;;;;;;;;;;2090314;28;20032;-70
2022/11/11 03:45:23;;;;;;;2.38;0.90;;;;;;;;;;2087042;28;20986;-69
2022/11/11 03:46:42;;;;;;;2.22;0.90;;;;;;;;;;2089128;28;20028;-69
2022/11/11 03:48:01;;;;;;;6.28;1.20;;;;;;;;;;2091448;28;20025;-69
2022/11/11 03:49:20;;;;;;;4.60;0.70;;;;;;;;;;2090539;28;20025;-70
2022/11/11 03:50:39;;;;;;;2.30;1.00;;;;;;;;;;2091686;28;20033;-70
2022/11/11 03:51:58;;;;;;;4.05;1.00;;;;;;;;;;2091013;28;20045;-69
2022/11/11 03:53:18;;;;;;;2.58;0.70;;;;;;;;;;2092256;28;20449;-69
2022/11/11 03:54:38;;;;;;;2.60;1.00;;;;;;;;;;2089581;28;20041;-69
2022/11/11 03:55:56;;;;;;;3.55;0.90;;;;;;;;;;2091812;28;20566;-69
2022/11/11 03:57:48;;;;;;;1.35;1.00;;;;;;;;;;2090893;28;20029;-69
2022/11/11 03:59:00;;;;;;;2.80;0.90;;;;;;;;;;2091542;28;20464;-70
2022/11/11 04:00:21;;;;;;;3.92;0.93;;;;;;;;;;2088341;28;20032;-69
2022/11/11 04:11:33;;;;;;;3.05;0.80;;;;;;;;;;2091321;28;20021;-70
2022/11/11 04:16:22;;;;;;;3.65;0.80;;;;;;;;;;2091930;28;20151;-70
2022/11/11 04:17:40;;;;;;;3.40;1.10;;;;;;;;;;2091131;28;20389;-69
2022/11/11 04:22:15;;;;;;;4.10;0.70;;;;;;;;;;2093159;28;20025;-69
2022/11/11 04:23:34;;;;;;;3.80;0.80;;;;;;;;;;2093058;28;20603;-70
2022/11/11 04:26:31;;;;;;;2.80;0.70;;;;;;;;;;2092749;28;20045;-70
2022/11/11 04:29:27;;;;;;;3.17;1.40;;;;;;;;;;2089223;28;20055;-70
2022/11/11 04:29:29;;;;;;;3.88;1.00;;;;;;;;;;2092573;28;20025;-70
2022/11/11 04:30:48;;;;;;;3.28;0.68;;;;;;;;;;2090901;28;20029;-70
2022/11/11 04:33:49;;;;;;;3.85;0.95;;;;;;;;;;2093451;28;20079;-70
2022/11/11 04:35:10;;;;;;;2.40;0.70;;;;;;;;;;2092101;28;20507;-70
2022/11/11 04:36:29;;;;;;;2.15;0.82;;;;;;;;;;2092971;28;20115;-69
2022/11/11 04:41:02;;;;;;;3.40;1.10;;;;;;;;;;2086276;28;20123;-70
2022/11/11 04:41:07;;;;;;;3.97;0.85;;;;;;;;;;2092563;28;20025;-69
2022/11/11 04:42:27;;;;;;;0.80;0.63;;;;;;;;;;2089758;28;20032;-69
2022/11/11 04:45:27;;;;;;;1.73;0.90;;;;;;;;;;2091327;28;20026;-70
2022/11/11 04:46:46;;;;;;;2.97;0.77;;;;;;;;;;2093420;28;20489;-69
2022/11/11 04:48:06;;;;;;;3.30;0.82;;;;;;;;;;2092794;28;20143;-70
2022/11/11 04:49:25;;;;;;;0.77;0.63;;;;;;;;;;2091200;28;20025;-69
2022/11/11 04:50:44;;;;;;;4.18;0.85;;;;;;;;;;2091307;28;20021;-69
2022/11/11 04:53:41;;;;;;;3.17;0.75;;;;;;;;;;2091388;28;20079;-69
2022/11/11 04:56:48;;;;;;;3.03;0.60;;;;;;;;;;2089240;28;20542;-70
2022/11/11 04:58:07;;;;;;;3.88;0.57;;;;;;;;;;2091651;28;20037;-69
2022/11/11 04:59:26;;;;;;;1.23;0.60;;;;;;;;;;2092744;28;20076;-69
2022/11/11 05:00:45;;;;;;;1.70;0.47;;;;;;;;;;2091458;28;20362;-69
2022/11/11 05:03:42;;;;;;;2.63;1.00;;;;;;;;;;2091680;28;20017;-69
2022/11/11 05:05:01;;;;;;;2.17;0.90;;;;;;;;;;2091790;28;20063;-70
2022/11/11 05:09:36;;;;;;;2.58;0.70;;;;;;;;;;2092009;28;20025;-69
2022/11/11 05:10:55;;;;;;;4.90;0.80;;;;;;;;;;2091070;28;20505;-69
2022/11/11 05:12:14;;;;;;;2.58;0.60;;;;;;;;;;2092603;28;20483;-70
2022/11/11 05:21:44;;;;;;;2.63;0.90;;;;;;;;;;2091533;28;20064;-69
2022/11/11 05:23:03;;;;;;;3.22;0.70;;;;;;;;;;2091273;28;20025;-69
2022/11/11 05:26:00;;;;;;;4.43;0.70;;;;;;;;;;2093421;28;20043;-70
2022/11/11 05:27:22;;;;;;;1.52;0.82;;;;;;;;;;2090172;28;20032;-69
2022/11/11 05:28:41;;;;;;;2.83;1.00;;;;;;;;;;2091311;28;20029;-69
2022/11/11 05:30:00;;;;;;;1.92;0.65;;;;;;;;;;2092105;28;20032;-69
2022/11/11 05:31:19;;;;;;;4.38;1.10;;;;;;;;;;2091670;28;20482;-69
2022/11/11 05:32:38;;;;;;;3.67;0.77;;;;;;;;;;2093831;28;20471;-69
2022/11/11 05:33:57;;;;;;;3.58;0.73;;;;;;;;;;2091323;28;20021;-69
2022/11/11 05:35:16;;;;;;;6.55;0.88;;;;;;;;;;2093446;28;20033;-69
2022/11/11 05:36:36;;;;;;;3.65;0.70;;;;;;;;;;2093335;28;20389;-69
2022/11/11 05:39:37;;;;;;;1.20;0.52;;;;;;;;;;2091304;28;20036;-69
2022/11/11 05:40:56;;;;;;;4.25;0.43;;;;;;;;;;2092563;28;20025;-69
2022/11/11 05:42:15;;;;;;;3.92;0.93;;;;;;;;;;2089602;28;20029;-70
2022/11/11 05:43:34;;;;;;;1.20;0.80;;;;;;;;;;2086918;28;20020;-70
2022/11/11 05:44:53;;;;;;;2.33;0.85;;;;;;;;;;2091179;28;20103;-70
2022/11/11 05:46:16;;;;;;;6.03;0.93;;;;;;;;;;2090989;28;20029;-70
2022/11/11 05:47:35;;;;;;;2.78;0.90;;;;;;;;;;2090337;28;20029;-70
2022/11/11 05:49:14;;;;;;;2.58;1.17;;;;;;;;;;2083801;28;20107;-70
2022/11/11 05:50:40;;;;;;;1.95;0.90;;;;;;;;;;2092048;28;20402;-70
2022/11/11 05:51:59;;;;;;;2.25;0.90;;;;;;;;;;2090560;28;20025;-70
2022/11/11 05:53:22;;;;;;;4.20;1.08;;;;;;;;;;2089990;28;20037;-69
2022/11/11 05:54:41;;;;;;;2.65;1.02;;;;;;;;;;2091578;28;20489;-70
2022/11/11 05:56:00;;;;;;;5.60;1.02;;;;;;;;;;2092555;28;20025;-69
2022/11/11 05:57:19;;;;;;;3.67;0.82;;;;;;;;;;2091876;28;20021;-69
2022/11/11 05:58:41;;;;;;;2.90;0.90;;;;;;;;;;2089975;28;20028;-69
2022/11/11 06:00:01;;;;;;;3.55;0.88;;;;;;;;;;2089865;28;20032;-69
2022/11/11 06:01:20;;;;;;;3.72;0.88;;;;;;;;;;2090567;28;20025;-69
2022/11/11 06:02:39;;;;;;;3.30;1.15;;;;;;;;;;2089717;28;20025;-69
2022/11/11 06:03:58;;;;;;;2.70;0.70;;;;;;;;;;2089254;28;20041;-69
2022/11/11 06:05:17;;;;;;;1.50;0.82;;;;;;;;;;2091458;28;20033;-69
2022/11/11 06:06:37;;;;;;;4.53;0.98;;;;;;;;;;2091983;28;20029;-69
2022/11/11 06:07:56;;;;;;;5.60;0.88;;;;;;;;;;2086814;28;20029;-69
2022/11/11 06:09:14;;;;;;;3.53;1.02;;;;;;;;;;2087394;28;20599;-69
2022/11/11 06:10:33;;;;;;;4.88;1.33;;;;;;;;;;2091587;28;20489;-69
2022/11/11 06:11:52;;;;;;;2.83;1.08;;;;;;;;;;2086684;28;20034;-69
2022/11/11 06:13:13;;;;;;;4.60;1.08;;;;;;;;;;2088566;28;20033;-69
2022/11/11 06:14:32;;;;;;;3.50;0.68;;;;;;;;;;2091190;28;20033;-70
2022/11/11 06:15:51;;;;;;;5.45;0.82;;;;;;;;;;2091083;28;20045;-69
2022/11/11 06:17:10;;;;;;;3.08;0.80;;;;;;;;;;2091677;28;20033;-71
2022/11/11 06:18:29;;;;;;;3.40;0.70;;;;;;;;;;2093044;28;20377;-69
2022/11/11 06:19:49;;;;;;;3.13;0.60;;;;;;;;;;2090152;28;20029;-70
2022/11/11 06:21:07;;;;;;;2.67;0.75;;;;;;;;;;2091724;28;20482;-69
2022/11/11 06:22:55;;;;;;;7.15;1.73;;;;;;;;;;2087358;28;20504;-69
2022/11/11 06:24:05;;;;;;;4.30;0.98;;;;;;;;;;2088514;28;20453;-69
2022/11/11 06:27:07;;;;;;;3.55;0.95;;;;;;;;;;2092837;28;20401;-69
2022/11/11 06:28:26;;;;;;;2.55;0.80;;;;;;;;;;2091711;28;20112;-69
2022/11/11 06:29:45;;;;;;;2.75;0.88;;;;;;;;;;2088360;28;20028;-69
2022/11/11 06:31:06;;;;;;;1.60;0.70;;;;;;;;;;2091140;28;20021;-69
2022/11/11 06:32:25;;;;;;;2.28;0.80;;;;;;;;;;2088075;28;20049;-69
2022/11/11 06:33:43;;;;;;;4.22;0.85;;;;;;;;;;2092126;28;20388;-69
2022/11/11 06:35:03;;;;;;;3.33;1.13;;;;;;;;;;2088419;28;20041;-69
2022/11/11 06:36:22;;;;;;;5.32;1.00;;;;;;;;;;2085080;28;20108;-69
2022/11/11 06:37:41;;;;;;;3.92;0.93;;;;;;;;;;2088071;28;20075;-69
2022/11/11 06:38:59;;;;;;;1.50;0.75;;;;;;;;;;2088323;28;20596;-69
2022/11/11 06:40:18;;;;;;;4.05;0.93;;;;;;;;;;2091844;28;20029;-69
2022/11/11 06:41:37;;;;;;;3.33;0.40;;;;;;;;;;2091498;28;20030;-69
2022/11/11 06:42:59;;;;;;;3.83;0.70;;;;;;;;;;2089674;28;20017;-69
2022/11/11 06:44:18;;;;;;;4.88;1.10;;;;;;;;;;2092043;28;20018;-69
2022/11/11 06:45:37;;;;;;;2.22;0.82;;;;;;;;;;2092407;28;20053;-69
2022/11/11 06:46:56;;;;;;;3.60;1.00;;;;;;;;;;2092639;28;20525;-70
2022/11/11 06:48:15;;;;;;;2.40;1.25;;;;;;;;;;2091649;28;20036;-69
2022/11/11 06:49:34;;;;;;;5.38;1.02;;;;;;;;;;2091945;28;20107;-70
2022/11/11 06:51:00;;;;;;;2.92;1.02;;;;;;;;;;2090040;28;20108;-69
2022/11/11 06:52:19;;;;;;;3.40;1.10;;;;;;;;;;2092132;28;20028;-69
2022/11/11 06:53:38;;;;;;;5.38;1.20;;;;;;;;;;2090940;28;20021;-69
2022/11/11 06:54:57;;;;;;;2.22;0.90;;;;;;;;;;2091145;28;20028;-69
2022/11/11 06:56:16;;;;;;;4.63;1.00;;;;;;;;;;2091685;28;20032;-70
2022/11/11 06:57:35;;;;;;;4.78;1.00;;;;;;;;;;2088132;28;20028;-69
2022/11/11 06:58:54;;;;;;;5.82;1.25;;;;;;;;;;2089919;28;20033;-69
2022/11/11 07:00:14;;;;;;;5.22;1.52;;;;;;;;;;2090117;28;20037;-69
2022/11/11 07:01:33;;;;;;;5.53;1.08;;;;;;;;;;2089595;28;20509;-69
2022/11/11 07:02:55;;;;;;;4.05;1.30;;;;;;;;;;2089053;28;20413;-69
2022/11/11 07:04:14;;;;;;;6.45;1.10;;;;;;;;;;2081955;28;20025;-71
2022/11/11 07:05:33;;;;;;;2.47;1.05;;;;;;;;;;2085109;28;20480;-69
2022/11/11 07:06:52;;;;;;;7.10;1.17;;;;;;;;;;2092327;28;20048;-70
2022/11/11 07:08:16;;;;;;;4.13;1.00;;;;;;;;;;2091911;28;20024;-68
2022/11/11 07:09:34;;;;;;;3.13;1.33;;;;;;;;;;2089380;28;20477;-69
2022/11/11 07:10:54;;;;;;;4.57;1.17;;;;;;;;;;2088670;28;20465;-69
2022/11/11 07:12:13;;;;;;;3.42;0.77;;;;;;;;;;2096468;28;20029;-69
2022/11/11 07:13:32;;;;;;;4.60;0.93;;;;;;;;;;2091735;28;20147;-69
2022/11/11 07:14:51;;;;;;;6.80;1.27;;;;;;;;;;2089801;28;20107;-69
2022/11/11 07:16:11;;;;;;;4.97;1.02;;;;;;;;;;2090694;28;20108;-70
2022/11/11 07:17:30;;;;;;;8.60;1.42;;;;;;;;;;2092082;28;20032;-69
2022/11/11 07:18:49;;;;;;;4.35;1.10;;;;;;;;;;2092360;28;20056;-69
2022/11/11 07:20:08;;;;;;;4.78;1.05;;;;;;;;;;2090975;28;20107;-69
2022/11/11 07:21:27;;;;;;;3.85;1.20;;;;;;;;;;2089367;28;20026;-69
2022/11/11 07:22:47;;;;;;;5.60;1.20;;;;;;;;;;2092537;28;20029;-69
2022/11/11 07:24:08;;;;;;;3.38;1.00;;;;;;;;;;2092013;28;20024;-69
2022/11/11 07:25:27;;;;;;;4.22;1.17;;;;;;;;;;2092388;28;20416;-70
2022/11/11 07:26:47;;;;;;;5.10;1.33;;;;;;;;;;2092432;28;20029;-69
2022/11/11 07:28:06;;;;;;;4.90;1.55;;;;;;;;;;2090833;28;20592;-70
2022/11/11 07:29:24;;;;;;;5.68;1.63;;;;;;;;;;2090941;28;20120;-69
2022/11/11 07:30:43;;;;;;;3.78;1.15;;;;;;;;;;2092106;28;20108;-70
2022/11/11 07:32:02;;;;;;;4.22;1.10;;;;;;;;;;2092785;28;20056;-68
2022/11/11 07:33:21;;;;;;;3.67;1.10;;;;;;;;;;2093056;28;20025;-68
2022/11/11 07:34:40;;;;;;;3.88;1.63;;;;;;;;;;2092099;28;20108;-69
2022/11/11 07:35:59;;;;;;;5.95;1.15;;;;;;;;;;2090702;28;20061;-69
2022/11/11 07:37:18;;;;;;;7.72;1.45;;;;;;;;;;2092884;28;20029;-69
2022/11/11 07:38:40;;;;;;;4.05;1.30;;;;;;;;;;2092477;28;20100;-69
2022/11/11 07:39:59;;;;;;;3.70;1.23;;;;;;;;;;2092692;28;20021;-69
2022/11/11 07:41:18;;;;;;;5.07;1.10;;;;;;;;;;2091434;28;20174;-68
2022/11/11 07:42:37;;;;;;;6.40;1.90;;;;;;;;;;2091878;28;20036;-69
2022/11/11 07:43:56;;;;;;;4.10;1.38;;;;;;;;;;2092882;28;20021;-68
2022/11/11 07:45:15;;;;;;;5.55;1.63;;;;;;;;;;2090938;28;20032;-69
2022/11/11 07:46:34;;;;;;;4.97;1.85;;;;;;;;;;2090898;28;20032;-70
2022/11/11 07:47:53;;;;;;;6.43;1.50;;;;;;;;;;2091610;28;20112;-70
2022/11/11 07:49:12;;;;;;;3.40;1.20;;;;;;;;;;2092252;28;20025;-70
2022/11/11 07:50:31;;;;;;;3.97;1.30;;;;;;;;;;2091028;28;20032;-70
2022/11/11 07:51:50;;;;;;;5.72;1.85;;;;;;;;;;2093145;28;20025;-70
2022/11/11 07:53:09;;;;;;;4.15;1.60;;;;;;;;;;2093237;28;20025;-70
2022/11/11 07:54:28;;;;;;;4.22;1.40;;;;;;;;;;2091948;28;20473;-70
2022/11/11 07:55:47;;;;;;;7.32;2.13;;;;;;;;;;2093689;28;20048;-70
2022/11/11 07:57:06;;;;;;;7.28;1.65;;;;;;;;;;2092860;28;20033;-71
2022/11/11 07:58:25;;;;;;;12.25;1.67;;;;;;;;;;2094374;28;20380;-69
2022/11/11 07:59:44;;;;;;;4.22;1.42;;;;;;;;;;2093290;28;20033;-69
2022/11/11 08:01:03;;;;;;;9.70;1.83;;;;;;;;;;2093257;28;20028;-69
2022/11/11 08:02:22;;;;;;;13.10;2.03;;;;;;;;;;2093245;28;20037;-69
2022/11/11 08:03:48;;;;;;;8.23;1.50;;;;;;;;;;2092794;28;20024;-69
2022/11/11 08:05:08;;;;;;;9.60;1.42;;;;;;;;;;2093219;28;20033;-70
2022/11/11 08:06:27;;;;;;;7.88;1.95;;;;;;;;;;2092962;28;20108;-70
2022/11/11 08:07:46;;;;;;;7.22;1.65;;;;;;;;;;2093040;28;20025;-69
2022/11/11 08:09:05;;;;;;;7.88;1.95;;;;;;;;;;2092901;28;20032;-69
2022/11/11 08:10:23;;;;;;;7.68;1.83;;;;;;;;;;2098322;28;20036;-69
2022/11/11 08:15:01;;;;;;;8.32;1.77;;;;;;;;;;2093249;28;20113;-69
2022/11/11 08:16:20;;;;;;;8.35;2.22;;;;;;;;;;2091896;28;20021;-69
2022/11/11 08:17:39;;;;;;;6.95;1.80;;;;;;;;;;2094109;28;20115;-69
2022/11/11 08:18:58;;;;;;;14.10;2.15;;;;;;;;;;2094064;28;20033;-68
2022/11/11 08:20:17;;;;;;;6.75;1.63;;;;;;;;;;2092050;28;20020;-70
2022/11/11 08:21:36;;;;;;;9.43;2.10;;;;;;;;;;2090664;28;20021;-70
2022/11/11 08:22:57;;;;;;;11.20;2.28;;;;;;;;;;2092807;28;20029;-70
2022/11/11 08:24:17;;;;;;;10.05;1.92;;;;;;;;;;2092497;28;20055;-69
2022/11/11 08:25:36;;;;;;;11.68;2.22;;;;;;;;;;2093469;28;20021;-69
2022/11/11 08:26:55;;;;;;;9.18;2.10;;;;;;;;;;2091854;28;20029;-70
2022/11/11 08:28:14;;;;;;;8.38;1.75;;;;;;;;;;2093775;28;20041;-69
2022/11/11 08:29:33;;;;;;;10.63;1.98;;;;;;;;;;2092789;28;20028;-69
2022/11/11 08:30:52;;;;;;;8.20;1.98;;;;;;;;;;2093309;28;20386;-68
2022/11/11 08:32:11;;;;;;;10.10;2.10;;;;;;;;;;2092876;28;20028;-68
2022/11/11 08:33:42;;;;;;;11.10;1.77;;;;;;;;;;2093318;28;20052;-70
2022/11/11 08:35:19;;;;;;;6.63;2.22;;;;;;;;;;2092903;28;20061;-70
2022/11/11 08:36:38;;;;;;;8.77;1.98;;;;;;;;;;2092935;28;20040;-70
2022/11/11 08:38:01;;;;;;;7.40;2.00;;;;;;;;;;2093667;28;20025;-70
2022/11/11 08:39:20;;;;;;;5.88;1.52;;;;;;;;;;2094219;28;20021;-69
2022/11/11 08:40:39;;;;;;;9.18;2.55;;;;;;;;;;2092084;28;20060;-69
2022/11/11 08:41:58;;;;;;;10.48;2.42;;;;;;;;;;2093668;28;20025;-70
2022/11/11 08:43:17;;;;;;;14.80;2.30;;;;;;;;;;2091704;28;20029;-69
2022/11/11 08:44:36;;;;;;;8.80;2.50;;;;;;;;;;2094087;28;20021;-70
2022/11/11 08:45:56;;;;;;;9.20;2.08;;;;;;;;;;2090598;28;20103;-71
2022/11/11 08:47:15;;;;;;;8.38;2.17;;;;;;;;;;2091356;28;20036;-69
2022/11/11 08:48:34;;;;;;;13.52;2.67;;;;;;;;;;2091657;28;20021;-69
2022/11/11 08:49:53;;;;;;;9.20;2.58;;;;;;;;;;2092275;28;20025;-70
2022/11/11 08:51:12;;;;;;;5.57;1.95;;;;;;;;;;2093222;28;20379;-68
2022/11/11 08:52:31;;;;;;;8.60;2.30;;;;;;;;;;2092885;28;20036;-69
2022/11/11 08:53:50;;;;;;;5.55;2.10;;;;;;;;;;2089112;28;20021;-69
2022/11/11 08:55:09;;;;;;;9.15;2.40;;;;;;;;;;2092845;28;20050;-70
2022/11/11 08:56:28;;;;;;;5.57;2.17;;;;;;;;;;2093307;28;20060;-69
2022/11/11 08:57:46;;;;;;;9.18;2.55;;;;;;;;;;2089905;28;20029;-70
2022/11/11 08:59:05;;;;;;;7.03;2.13;;;;;;;;;;2090304;28;20116;-70
2022/11/11 09:00:24;;;;;;;10.15;2.72;;;;;;;;;;2092674;28;20029;-69
2022/11/11 09:01:43;;;;;;;10.50;2.13;;;;;;;;;;2091159;28;20029;-70
2022/11/11 09:03:03;;;;;;;9.38;2.45;;;;;;;;;;2092972;28;20057;-70
2022/11/11 09:04:22;;;;;;;12.25;2.78;;;;;;;;;;2092631;28;20509;-69
2022/11/11 09:05:41;;;;;;;8.52;3.08;;;;;;;;;;2092397;28;20477;-70
2022/11/11 09:07:00;;;;;;;6.15;1.98;;;;;;;;;;2091888;28;20033;-70
2022/11/11 09:08:19;;;;;;;11.30;2.50;;;;;;;;;;2093600;28;20390;-70
2022/11/11 09:09:38;;;;;;;13.77;2.35;;;;;;;;;;2091436;28;20049;-69
2022/11/11 09:10:57;;;;;;;8.60;2.17;;;;;;;;;;2092273;28;20604;-70
2022/11/11 09:12:16;;;;;;;9.50;2.25;;;;;;;;;;2092904;28;20033;-69
2022/11/11 09:13:36;;;;;;;10.88;2.70;;;;;;;;;;2093918;28;20029;-69
2022/11/11 09:14:54;;;;;;;9.18;2.90;;;;;;;;;;2093366;28;20017;-69
2022/11/11 09:16:16;;;;;;;10.30;2.47;;;;;;;;;;2092546;28;20025;-69
2022/11/11 09:17:35;;;;;;;9.47;3.03;;;;;;;;;;2091045;28;20021;-69
2022/11/11 09:18:54;;;;;;;12.48;2.30;;;;;;;;;;2091662;28;20028;-69
2022/11/11 09:20:14;;;;;;;14.85;2.88;;;;;;;;;;2093871;28;20130;-69